Create Custom Reports and Graphics: Custom Report

Soquel - CalFire

Current Conditions

10/30/20 2:30 AM (-07:00)
Updated Every 15 Minutes
Temp 57.4 °F   1.3
RH 42 %   5
Dew Pt 34.4 °F   4.3
Wind Spd 1.6 mph
Wind Dir E | 88 °
Wind Gust 2.2 mph   0.2
Latest Rain 0.00 In
Daily Rain 0.00 In
Leaf Wet 0.0 mins
Daily Min Temp 57.1 °F   1.3
Daily Max Temp 58.0 °F   1.3

Daily Summary

Last 30 Days

Daily Data | America/Los_Angeles
as of 10/30/20 2:32 AM PDT
Date Daily Max Temp (°F) Daily Min Temp (°F) Daily Rain (In) Seasonal Rainfall (In) Daily Solar Rad (Cal/cm2) Daily ETo (in) Wind Spd (mph) Daily Max Wind (mph) Max Wind Dir (°) Dew Pt (°F) Max RH (%) Min RH (%) Daily Leaf Wet Hrs (hrs) Soil Temp (°F) Soil Moist (%) Fuel Moisture (%) Max Fuel Moisture (%) Min Fuel Moisture (%) Bat Volt Min Day (V)
10/29/20 80.2 54.9 0.00 0.02 346 0.090 1.4 6.7 NW | 311 32.3 44 15 0.0 68.9 10.7 6 10 0 12.4
10/28/20 77.4 52.5 0.00 0.02 349 0.088 1.3 6.1 W | 276 26.9 39 13 0.0 69.3 10.7 6 10 0 12.4
10/27/20 75.8 52.7 0.00 0.02 356 0.087 1.5 8.9 SW | 235 17.3 33 8 0.0 69.7 10.7 6 9 0 12.4
10/26/20 74.3 48.0 0.00 0.02 366 0.087 2.4 17.2 NE | 34 4.8 21 5 0.0 70.0 10.8 7 13 0 12.4
10/25/20 65.7 52.5 0.00 0.02 223 0.055 1.5 14.0 NNE | 26 40.5 86 13 0.0 70.2 11.0 14 18 6 12.4
10/24/20 69.9 52.0 0.00 0.02 337 0.086 1.3 8.6 W | 278 49.5 89 50 5.2 70.4 11.0 15 22 1 12.4
10/23/20 71.3 49.5 0.00 0.02 365 0.095 1.3 8.9 SSW | 210 49.0 90 48 4.6 70.6 11.0 12 19 0 12.4
10/22/20 71.5 46.8 0.00 0.02 371 0.097 0.9 7.2 WNW | 299 48.4 93 47 4.8 70.7 11.0 9 15 0 12.4
10/21/20 84.8 61.8 0.00 0.02 378 0.106 1.3 9.6 W | 268 41.0 54 21 0.0 70.9 11.1 6 9 0 12.4
10/20/20 86.6 63.1 0.00 0.02 382 0.110 1.3 7.7 WSW | 239 42.8 50 23 0.0 71.0 11.1 6 10 0 12.4
10/19/20 85.5 61.4 0.00 0.02 385 0.110 1.1 7.1 SW | 227 43.2 57 21 0.0 71.1 11.2 6 9 0 12.3
10/18/20 87.1 62.6 0.00 0.02 390 0.111 1.3 7.8 SSW | 195 38.7 56 18 0.0 71.1 11.2 5 8 0 12.4
10/17/20 95.4 67.3 0.00 0.02 386 0.110 1.4 7.5 WSW | 239 36.8 36 11 0.0 71.1 11.3 4 7 0 12.4
10/16/20 96.2 70.6 0.00 0.02 388 0.112 1.6 9.1 S | 170 38.2 32 13 0.0 71.1 11.3 4 6 0 12.4
10/15/20 95.1 71.6 0.00 0.02 406 0.114 2.0 10.8 NE | 50 31.9 30 11 0.0 71.2 11.3 3 6 0 12.4
10/14/20 90.5 69.9 0.00 0.02 412 0.119 2.1 12.3 N | 354 41.8 43 14 0.0 71.3 11.3 4 8 0 12.4
10/13/20 91.5 65.1 0.00 0.02 420 0.120 1.7 9.1 NNE | 27 36.4 35 11 0.0 71.5 11.3 5 8 0 12.4
10/12/20 91.4 59.8 0.00 0.02 426 0.120 1.4 7.5 W | 268 34.3 44 12 0.0 71.8 11.3 6 12 0 12.4
10/11/20 80.6 51.3 0.00 0.02 427 0.116 1.6 10.6 ESE | 106 44.9 93 16 9.4 72.0 11.3 14 29 0 12.5
10/10/20 73.6 52.6 0.00 0.02 375 0.100 1.2 8.1 SSW | 212 53.6 92 54 9.6 72.2 11.3 14 22 1 12.5
10/9/20 73.4 51.0 0.00 0.02 333 0.087 1.1 7.5 WSW | 243 51.5 94 47 7.4 72.5 11.4 14 20 0 12.4
10/8/20 69.3 48.7 0.00 0.02 385 0.098 1.0 7.1 W | 267 49.6 94 56 8.5 72.6 11.4 11 17 0 12.4
10/7/20 80.5 55.1 0.00 0.02 374 0.103 0.8 5.9 WSW | 248 47.1 85 32 1.4 72.7 11.4 7 12 0 12.4
10/6/20 88.0 59.8 0.00 0.02 320 0.093 1.1 7.6 W | 259 41.9 65 14 0.0 72.8 11.5 5 9 0 12.4
10/5/20 91.7 67.9 0.00 0.02 444 0.126 1.3 6.6 NW | 305 34.8 35 12 0.0 72.7 11.6 4 6 0 12.4
10/4/20 96.0 69.7 0.00 0.02 455 0.132 1.4 7.5 NNW | 332 31.6 27 9 0.0 72.6 11.6 3 5 0 12.4
10/3/20 100.5 71.2 0.00 0.02 435 0.123 1.7 17.0 NE | 53 32.7 30 8 0.0 72.6 11.7 3 6 0 12.4
10/2/20 98.9 73.6 0.00 0.02 442 0.127 1.7 13.8 ENE | 65 34.3 29 9 0.0 72.5 11.7 3 6 0 12.4
10/1/20 98.2 76.2 0.00 0.02 364 0.107 1.4 8.6 WNW | 289 38.0 29 11 0.0 72.4 11.7 3 5 0 12.4
9/30/20 100.6 66.5 0.00 0.02 465 0.140 1.3 7.1 W | 269 39.2 35 12 0.0 72.4 11.7 4 9 0 12.4
Max 100.6 76.2 0.00 - 465 0.140 2.4 17.2 - 53.6 94 56 9.6 72.8 11.7 15 29 6 12.5
Avg - - - - - - 1.4 - - 38.4 - - - 71.4 11.3 7 12 0 -
Min 65.7 46.8 0.00 - 223 0.055 0.8 5.9 - 4.8 21 5 0.0 68.9 10.7 3 5 0 12.3